Time;durP1;ratioP1;P1;durP2;ratioP2;P2;SDS_P1;SDS_P2;PMS_P1;PMS_P2;Temp;Humidity;BMP_temperature;BMP_pressure;BME280_temperature;BME280_humidity;BME280_pressure;Samples;Min_cycle;Max_cycle;Signal;HPM_P1;HPM_P2
2021/09/24 00:01:15;;;;;;;;;28.50;25.50;;;;;17.92;100.00;101787.41;5019531;28;45325;-68
2021/09/24 00:03:41;;;;;;;;;23.00;21.75;;;;;17.92;100.00;101796.19;5019200;28;45368;-68
2021/09/24 00:06:06;;;;;;;;;24.00;23.00;;;;;17.90;100.00;101794.50;5019261;28;45288;-67
2021/09/24 00:08:32;;;;;;;;;29.00;25.00;;;;;17.88;100.00;101797.19;5019190;28;45275;-67
2021/09/24 00:14:47;;;;;;;;;22.00;21.00;;;;;17.86;100.00;101784.91;5019023;28;45208;-67
2021/09/24 00:17:13;;;;;;;;;23.25;21.75;;;;;17.85;100.00;101778.75;5019587;28;45446;-67
2021/09/24 00:19:39;;;;;;;;;23.25;19.75;;;;;17.97;100.00;101790.78;5001495;28;45687;-67
2021/09/24 00:22:04;;;;;;;;;22.25;19.75;;;;;18.05;100.00;101788.78;5019314;28;45435;-67
2021/09/24 00:24:30;;;;;;;;;17.25;15.25;;;;;18.04;100.00;101781.75;5019291;28;45497;-67
2021/09/24 00:26:55;;;;;;;;;18.75;17.00;;;;;18.06;100.00;101786.09;5019268;28;45393;-67
2021/09/24 00:29:21;;;;;;;;;17.00;16.25;;;;;18.00;100.00;101770.41;5019156;28;45481;-67
2021/09/24 00:31:46;;;;;;;;;17.25;16.00;;;;;18.14;100.00;101782.38;5018954;28;45368;-67
2021/09/24 00:34:12;;;;;;;;;15.75;14.00;;;;;18.14;100.00;101763.88;5019203;28;45431;-67
2021/09/24 00:36:37;;;;;;;;;17.75;13.50;;;;;18.18;100.00;101768.16;5019091;28;45274;-67
2021/09/24 00:39:03;;;;;;;;;15.75;14.25;;;;;18.19;100.00;101759.31;5019215;28;46063;-67
2021/09/24 00:41:28;;;;;;;;;13.25;12.75;;;;;18.26;100.00;101761.72;5018638;28;45381;-68
2021/09/24 00:43:54;;;;;;;;;14.25;13.00;;;;;18.30;100.00;101757.19;5018744;28;45382;-67
2021/09/24 00:46:19;;;;;;;;;15.50;14.50;;;;;18.35;100.00;101760.59;5019428;28;45436;-68
2021/09/24 00:48:46;;;;;;;;;15.50;15.00;;;;;18.40;100.00;101756.03;5018578;28;46235;-67
2021/09/24 00:51:12;;;;;;;;;14.25;13.50;;;;;18.44;100.00;101747.09;5018838;28;45733;-67
2021/09/24 00:53:37;;;;;;;;;13.75;13.25;;;;;18.51;100.00;101745.97;5001105;28;45367;-68
2021/09/24 00:59:25;;;;;;;;;16.25;14.50;;;;;18.59;100.00;101735.19;5018428;28;45856;-68
2021/09/24 01:01:50;;;;;;;;;16.50;13.00;;;;;18.53;100.00;101740.63;5018492;28;45451;-67
2021/09/24 01:04:15;;;;;;;;;14.50;12.75;;;;;18.54;100.00;101729.13;5018889;28;45300;-67
2021/09/24 01:06:41;;;;;;;;;16.75;15.50;;;;;18.53;100.00;101733.56;5018597;28;45415;-67
2021/09/24 01:09:08;;;;;;;;;20.00;15.00;;;;;18.47;100.00;101728.47;5018343;28;45681;-67
2021/09/24 01:15:01;;;;;;;;;15.00;13.00;;;;;18.51;100.00;101726.59;5018276;28;45302;-67
2021/09/24 01:17:26;;;;;;;;;16.25;15.00;;;;;18.53;100.00;101728.28;5018693;28;45348;-67
2021/09/24 01:19:52;;;;;;;;;16.00;13.00;;;;;18.57;100.00;101722.00;5018557;28;45966;-66
2021/09/24 01:22:17;;;;;;;;;19.25;14.75;;;;;18.60;100.00;101713.09;5018190;28;45234;-67
2021/09/24 01:24:43;;;;;;;;;13.25;12.75;;;;;18.65;100.00;101714.72;5018745;28;45291;-67
2021/09/24 01:27:08;;;;;;;;;12.75;11.00;;;;;18.64;100.00;101701.53;5018341;28;45266;-67
2021/09/24 01:29:34;;;;;;;;;11.25;10.75;;;;;18.73;100.00;101724.16;5018034;28;46285;-67
2021/09/24 01:31:59;;;;;;;;;12.00;9.00;;;;;18.70;100.00;101719.84;5018548;28;45234;-68
2021/09/24 01:34:25;;;;;;;;;11.00;9.50;;;;;18.66;100.00;101710.28;5018030;28;45280;-67
2021/09/24 01:36:50;;;;;;;;;10.00;10.00;;;;;18.68;100.00;101721.69;5018145;28;45292;-67
2021/09/24 01:39:15;;;;;;;;;12.00;8.00;;;;;18.65;100.00;101725.28;5017669;28;47319;-67
2021/09/24 01:45:03;;;;;;;;;9.00;8.00;;;;;18.37;100.00;101679.44;5017796;28;45289;-67
2021/09/24 01:47:29;;;;;;;;;8.00;7.00;;;;;18.58;100.00;101713.16;5018245;28;45490;-67
2021/09/24 01:49:54;;;;;;;;;8.00;7.75;;;;;18.60;100.00;101716.59;5017621;28;47000;-68
2021/09/24 01:52:20;;;;;;;;;8.25;7.75;;;;;18.50;100.00;101696.63;5018161;28;45394;-68
2021/09/24 01:54:45;;;;;;;;;8.25;7.25;;;;;18.52;100.00;101700.09;5018109;28;45254;-67
2021/09/24 01:57:11;;;;;;;;;6.00;6.00;;;;;18.59;100.00;101704.31;5018412;28;45493;-67
2021/09/24 01:59:37;;;;;;;;;8.00;6.50;;;;;18.63;100.00;101713.91;5017289;28;47444;-67
2021/09/24 02:02:03;;;;;;;;;9.00;7.00;;;;;18.62;100.00;101716.56;5017915;28;45378;-67
2021/09/24 02:04:28;;;;;;;;;10.00;7.75;;;;;18.59;100.00;101717.53;5017643;28;45320;-67
2021/09/24 02:06:54;;;;;;;;;8.50;8.00;;;;;18.58;100.00;101717.56;5017966;28;45302;-67
2021/09/24 02:09:19;;;;;;;;;8.00;8.00;;;;;18.57;100.00;101718.50;5017136;28;47212;-68
2021/09/24 02:15:06;;;;;;;;;11.00;7.00;;;;;18.55;100.00;101723.81;5017769;28;45397;-67
2021/09/24 02:17:32;;;;;;;;;10.25;8.25;;;;;18.51;100.00;101724.81;5018025;28;45646;-67
2021/09/24 02:19:57;;;;;;;;;9.75;7.50;;;;;18.53;100.00;101725.63;5017677;28;45753;-68
2021/09/24 02:22:23;;;;;;;;;15.25;9.00;;;;;18.44;100.00;101722.44;5017546;28;45350;-68
2021/09/24 02:24:48;;;;;;;;;9.25;6.25;;;;;18.47;100.00;101722.31;5017437;28;45308;-68
2021/09/24 02:27:14;;;;;;;;;9.25;8.00;;;;;18.49;100.00;101718.72;5017558;28;45340;-67
2021/09/24 02:29:39;;;;;;;;;7.00;6.75;;;;;18.51;100.00;101716.03;5017448;28;46432;-68
2021/09/24 02:32:05;;;;;;;;;10.00;8.00;;;;;18.57;100.00;101714.06;5017294;28;45349;-68
2021/09/24 02:34:30;;;;;;;;;9.00;7.00;;;;;18.60;100.00;101713.97;5016685;28;45353;-68
2021/09/24 02:36:56;;;;;;;;;10.25;8.50;;;;;18.61;100.00;101712.19;5017922;28;45408;-68
2021/09/24 02:39:22;;;;;;;;;7.75;6.50;;;;;18.65;100.00;101706.78;5017047;28;47590;-68
2021/09/24 02:45:09;;;;;;;;;7.25;7.00;;;;;18.78;100.00;101715.16;5017355;28;45432;-68
2021/09/24 02:47:34;;;;;;;;;10.75;8.00;;;;;18.78;100.00;101712.50;5017350;28;45392;-68
2021/09/24 02:50:00;;;;;;;;;11.75;8.25;;;;;18.82;100.00;101713.31;5017124;28;46660;-68
2021/09/24 02:52:25;;;;;;;;;8.75;7.00;;;;;18.85;100.00;101718.50;5017198;28;45306;-68
2021/09/24 02:54:50;;;;;;;;;11.00;8.50;;;;;18.80;100.00;101699.25;5017185;28;45432;-68
2021/09/24 03:00:37;;;;;;;;;9.25;7.75;;;;;18.77;100.00;101686.97;5016687;28;45695;-68
2021/09/24 03:03:04;;;;;;;;;11.00;9.50;;;;;18.70;100.00;101669.56;5017136;28;45383;-69
2021/09/24 03:05:30;;;;;;;;;11.00;10.25;;;;;18.91;100.00;101703.25;5016859;28;45306;-68
2021/09/24 03:07:55;;;;;;;;;10.75;9.25;;;;;18.88;100.00;101703.38;5017284;28;45415;-68
2021/09/24 03:10:20;;;;;;;;;12.25;10.25;;;;;18.95;100.00;101710.19;5016236;28;45451;-68
2021/09/24 03:12:46;;;;;;;;;12.00;10.00;;;;;18.96;100.00;101711.91;4998743;28;45416;-68
2021/09/24 03:15:12;;;;;;;;;15.00;11.00;;;;;18.98;100.00;101703.91;5017216;28;45534;-68
2021/09/24 03:17:39;;;;;;;;;11.25;10.00;;;;;19.01;100.00;101708.25;5017120;28;45164;-68
2021/09/24 03:20:05;;;;;;;;;11.00;11.00;;;;;18.98;100.00;101696.84;5016811;28;46643;-69
2021/09/24 03:22:31;;;;;;;;;11.50;10.50;;;;;18.93;100.00;101689.97;5016741;28;45295;-68
2021/09/24 03:24:56;;;;;;;;;13.00;9.75;;;;;19.03;100.00;101699.34;5016853;28;45279;-67
2021/09/24 03:30:43;;;;;;;;;9.75;8.00;;;;;18.84;100.00;101655.91;5016495;28;45316;-67
2021/09/24 03:33:09;;;;;;;;;8.75;8.00;;;;;18.97;100.00;101681.00;5016756;28;45210;-67
2021/09/24 03:35:34;;;;;;;;;10.50;10.00;;;;;18.86;100.00;101662.88;5016953;28;45273;-68
2021/09/24 03:38:00;;;;;;;;;9.25;8.25;;;;;18.99;100.00;101684.47;5016872;28;45232;-68
2021/09/24 03:40:25;;;;;;;;;12.00;10.00;;;;;18.96;100.00;101681.94;5016696;28;45273;-68
2021/09/24 03:42:50;;;;;;;;;7.00;7.00;;;;;18.95;100.00;101680.19;5016335;28;45278;-68
2021/09/24 03:45:16;;;;;;;;;8.50;8.00;;;;;18.96;100.00;101682.78;5016734;28;45291;-68
2021/09/24 03:47:41;;;;;;;;;11.00;8.25;;;;;19.02;100.00;101687.03;5020279;28;45200;-67
2021/09/24 03:50:08;;;;;;;;;8.50;8.00;;;;;19.03;100.00;101683.47;5019780;28;45418;-68
2021/09/24 03:52:34;;;;;;;;;11.25;10.00;;;;;19.02;100.00;101678.22;5019819;28;45729;-67
2021/09/24 03:55:00;;;;;;;;;7.25;7.25;;;;;19.04;100.00;101687.00;5019682;28;45391;-67
2021/09/24 04:00:47;;;;;;;;;8.50;8.00;;;;;18.94;100.00;101666.09;5019363;28;45318;-68
2021/09/24 04:03:13;;;;;;;;;7.00;7.00;;;;;18.95;100.00;101662.53;5019604;28;45634;-68
2021/09/24 04:05:38;;;;;;;;;8.00;7.25;;;;;19.03;100.00;101678.19;5019574;28;45507;-68
2021/09/24 04:08:04;;;;;;;;;9.00;8.00;;;;;18.98;100.00;101666.88;5020029;28;45352;-68
2021/09/24 04:10:30;;;;;;;;;10.75;7.00;;;;;19.06;100.00;101671.91;5019180;28;47376;-68
2021/09/24 04:12:55;;;;;;;;;6.00;5.75;;;;;19.07;100.00;101668.34;5019204;28;45408;-68
2021/09/24 04:15:21;;;;;;;;;9.25;9.00;;;;;19.06;100.00;101675.44;5019794;28;45382;-68
2021/09/24 04:17:46;;;;;;;;;9.25;6.25;;;;;19.07;100.00;101679.81;5019358;28;45285;-68
2021/09/24 04:20:12;;;;;;;;;6.00;5.00;;;;;19.09;100.00;101679.75;5019274;28;47258;-67
2021/09/24 04:22:37;;;;;;;;;8.25;6.25;;;;;19.07;100.00;101685.09;5018919;28;45314;-67
2021/09/24 04:25:04;;;;;;;;;3.50;3.00;;;;;19.11;100.00;101691.16;5019395;28;45453;-67
2021/09/24 04:30:50;;;;;;;;;4.50;4.50;;;;;19.10;100.00;101689.41;5018944;28;45744;-68
2021/09/24 04:33:16;;;;;;;;;6.75;5.00;;;;;19.10;100.00;101686.75;5019063;28;45469;-67
2021/09/24 04:35:41;;;;;;;;;5.75;5.75;;;;;19.10;100.00;101686.75;5019248;28;45336;-67
2021/09/24 04:38:07;;;;;;;;;16.50;11.50;;;;;19.10;100.00;101684.97;5019014;28;45490;-67
2021/09/24 04:40:32;;;;;;;;;5.75;5.75;;;;;19.11;100.00;101678.78;5019111;28;45383;-68
2021/09/24 04:46:19;;;;;;;;;6.00;4.25;;;;;19.10;100.00;101670.88;5018991;28;45439;-67
2021/09/24 04:48:45;;;;;;;;;6.50;4.00;;;;;19.14;100.00;101683.09;5018831;28;45257;-67
2021/09/24 04:51:10;;;;;;;;;4.50;4.25;;;;;19.19;100.00;101686.44;5018981;28;46416;-67
2021/09/24 04:53:36;;;;;;;;;5.00;4.00;;;;;19.19;100.00;101686.44;5018650;28;45402;-68
2021/09/24 04:56:01;;;;;;;;;4.00;4.00;;;;;19.17;100.00;101675.03;5019190;28;45337;-67
2021/09/24 04:58:27;;;;;;;;;3.50;3.00;;;;;19.19;100.00;101671.41;5018022;28;45451;-67
2021/09/24 05:00:52;;;;;;;;;6.00;4.50;;;;;19.20;100.00;101673.13;5018713;28;45562;-67
2021/09/24 05:03:18;;;;;;;;;25.00;23.50;;;;;19.16;100.00;101671.53;5018383;28;45262;-68
2021/09/24 05:05:43;;;;;;;;;4.75;4.00;;;;;19.19;100.00;101678.50;5018992;28;45276;-68
2021/09/24 05:08:09;;;;;;;;;6.00;3.50;;;;;19.14;100.00;101676.00;5019118;28;45216;-68
2021/09/24 05:10:34;;;;;;;;;7.75;4.75;;;;;19.15;100.00;101679.53;5017837;28;46200;-68
2021/09/24 05:16:21;;;;;;;;;4.00;4.00;;;;;19.18;100.00;101674.13;5018481;28;45392;-68
2021/09/24 05:18:46;;;;;;;;;5.00;4.00;;;;;19.19;100.00;101671.41;5018678;28;45247;-68
2021/09/24 05:21:12;;;;;;;;;6.00;5.00;;;;;19.12;100.00;101658.47;5018378;28;47146;-67
2021/09/24 05:23:38;;;;;;;;;5.00;5.00;;;;;19.22;100.00;101670.44;5018397;28;45349;-69
2021/09/24 05:26:04;;;;;;;;;7.50;5.75;;;;;19.25;100.00;101679.16;5018631;28;45302;-68
2021/09/24 05:28:30;;;;;;;;;6.25;5.00;;;;;19.24;100.00;101677.44;5018815;28;45262;-67
2021/09/24 05:30:55;;;;;;;;;4.25;4.00;;;;;19.20;100.00;101670.50;5018270;28;46759;-68
2021/09/24 05:33:21;;;;;;;;;4.25;4.25;;;;;19.23;100.00;101680.09;5017957;28;45316;-68
2021/09/24 05:35:46;;;;;;;;;4.50;4.25;;;;;19.22;100.00;101675.72;5018170;28;45286;-68
2021/09/24 05:38:12;;;;;;;;;7.75;5.00;;;;;19.23;100.00;101677.47;5018323;28;45330;-67
2021/09/24 05:40:37;;;;;;;;;6.50;5.50;;;;;19.23;100.00;101670.38;5018137;28;45321;-68
2021/09/24 05:46:25;;;;;;;;;6.25;5.50;;;;;19.15;100.00;101663.63;5017973;28;45286;-68
2021/09/24 05:48:50;;;;;;;;;8.00;5.75;;;;;19.14;100.00;101657.47;5018331;28;45350;-67
2021/09/24 05:51:15;;;;;;;;;5.75;5.50;;;;;19.18;100.00;101668.81;5017737;28;46357;-67
2021/09/24 05:53:41;;;;;;;;;5.50;5.00;;;;;19.23;100.00;101672.16;5017646;28;45346;-68
2021/09/24 05:56:06;;;;;;;;;6.00;6.00;;;;;19.21;100.00;101666.06;5017299;28;45269;-67
2021/09/24 05:58:32;;;;;;;;;6.00;5.50;;;;;19.25;100.00;101670.34;5017894;28;45584;-66
2021/09/24 06:00:57;;;;;;;;;5.00;5.00;;;;;19.17;100.00;101657.38;5017730;28;46476;-67
2021/09/24 06:03:23;;;;;;;;;6.25;6.00;;;;;19.20;100.00;101659.03;5017472;28;45487;-68
2021/09/24 06:05:49;;;;;;;;;6.50;6.00;;;;;19.27;100.00;101669.38;5017662;28;45318;-68
2021/09/24 06:08:14;;;;;;;;;5.25;5.25;;;;;19.22;100.00;101655.41;5017683;28;45318;-66
2021/09/24 06:10:41;;;;;;;;;7.25;5.50;;;;;19.29;100.00;101674.63;5016480;28;45420;-67
2021/09/24 06:16:28;;;;;;;;;9.00;8.00;;;;;19.16;100.00;101663.59;5017640;28;45446;-68
2021/09/24 06:18:54;;;;;;;;;5.50;4.00;;;;;19.27;100.00;101674.69;5018023;28;45313;-67
2021/09/24 06:21:21;;;;;;;;;8.00;7.00;;;;;19.33;100.00;101684.19;5017552;28;46141;-67
2021/09/24 06:23:46;;;;;;;;;6.75;6.75;;;;;19.40;100.00;101684.81;5017387;28;45447;-69
2021/09/24 06:26:12;;;;;;;;;6.00;5.00;;;;;19.41;100.00;101682.09;5017341;28;45357;-67
2021/09/24 06:31:59;;;;;;;;;10.25;7.00;;;;;19.49;100.00;101674.78;5017048;28;45765;-67
2021/09/24 06:34:24;;;;;;;;;6.00;5.75;;;;;19.52;100.00;101671.16;5017372;28;45378;-68
2021/09/24 06:36:50;;;;;;;;;6.50;6.50;;;;;19.57;100.00;101671.88;5017572;28;45464;-67
2021/09/24 06:39:15;;;;;;;;;7.50;7.25;;;;;19.58;100.00;101669.16;5017448;28;45378;-67
2021/09/24 06:41:40;;;;;;;;;6.50;5.75;;;;;19.62;100.00;101663.75;5016721;28;46398;-71
2021/09/24 06:44:07;;;;;;;;;6.50;6.50;;;;;19.70;100.00;101675.81;5016465;28;45596;-68
2021/09/24 06:46:33;;;;;;;;;7.75;6.75;;;;;19.69;100.00;101659.94;5017190;28;45405;-71
2021/09/24 06:48:59;;;;;;;;;3.50;2.75;;;;;19.83;100.00;101678.84;5017336;28;45364;-74
2021/09/24 06:51:24;;;;;;;;;7.50;6.00;;;;;19.88;100.00;101669.78;5016533;28;47054;-74
2021/09/24 06:53:49;;;;;;;;;10.00;9.00;;;;;19.91;100.00;101675.88;5016457;28;45261;-75
2021/09/24 06:56:15;;;;;;;;;7.75;6.00;;;;;19.87;100.00;101670.72;5017106;28;45264;-73
2021/09/24 07:02:02;;;;;;;;;7.75;7.00;;;;;19.91;100.00;101673.25;5016732;28;45490;-71
2021/09/24 07:04:27;;;;;;;;;8.00;6.25;;;;;19.99;100.00;101674.69;5016585;28;45270;-72
2021/09/24 07:06:53;;;;;;;;;9.75;9.00;;;;;20.05;100.00;101669.16;4998937;28;45320;-71
2021/09/24 07:09:18;;;;;;;;;7.00;7.00;;;;;20.19;100.00;101671.28;5016803;28;45333;-71
2021/09/24 07:11:48;;;;;;;;;8.00;7.25;;;;;20.32;100.00;101677.81;5016488;28;47033;-71
2021/09/24 07:14:14;;;;;;;;;9.50;7.50;;;;;20.37;100.00;101667.91;5016164;28;45661;-71
2021/09/24 07:16:39;;;;;;;;;8.75;7.00;;;;;20.45;100.00;101670.25;5016553;28;45285;-71
2021/09/24 07:19:06;;;;;;;;;8.00;7.00;;;;;20.59;100.00;101677.63;5016508;28;45481;-71
2021/09/24 07:21:32;;;;;;;;;8.75;8.25;;;;;20.60;100.00;101667.00;5018938;28;47116;-71
2021/09/24 07:23:59;;;;;;;;;8.75;7.25;;;;;20.70;100.00;101678.06;5019882;28;45218;-72
2021/09/24 07:26:24;;;;;;;;;10.50;9.50;;;;;20.78;100.00;101683.91;5020223;28;45261;-72
2021/09/24 07:32:11;;;;;;;;;9.75;8.50;;;;;20.93;100.00;101666.50;5019806;28;45820;-72
2021/09/24 07:34:39;;;;;;;;;8.50;8.50;;;;;21.06;100.00;101665.91;5019994;28;45356;-71
2021/09/24 07:37:05;;;;;;;;;9.00;8.00;;;;;21.25;100.00;101668.66;5020299;28;45346;-72
2021/09/24 07:39:30;;;;;;;;;14.50;11.50;;;;;21.41;100.00;101671.50;5019998;28;45308;-71
2021/09/24 07:41:56;;;;;;;;;11.25;9.50;;;;;21.57;100.00;101663.72;5019874;28;45303;-71
2021/09/24 07:44:22;;;;;;;;;12.00;10.75;;;;;21.68;100.00;101648.97;5020011;28;45464;-71
2021/09/24 07:46:51;;;;;;;;;12.75;11.00;;;;;21.91;100.00;101655.88;5019980;28;45538;-71
2021/09/24 07:49:16;;;;;;;;;11.00;8.25;;;;;22.27;100.00;101661.31;5020023;28;45358;-71
2021/09/24 07:51:42;;;;;;;;;15.25;12.00;;;;;22.63;100.00;101660.41;5019210;28;47244;-71
2021/09/24 07:54:07;;;;;;;;;11.25;9.50;;;;;22.88;100.00;101652.97;5019037;28;45360;-71
2021/09/24 07:56:33;;;;;;;;;11.50;9.25;;;;;22.99;100.00;101651.53;5019939;28;45198;-71
2021/09/24 08:02:20;;;;;;;;;8.75;7.75;;;;;22.92;100.00;101659.00;5019141;28;45416;-71
2021/09/24 08:04:45;;;;;;;;;14.75;11.50;;;;;22.76;100.00;101666.84;5019570;28;45474;-72
2021/09/24 08:07:10;;;;;;;;;13.50;12.00;;;;;22.46;100.00;101668.41;5019473;28;45320;-71
2021/09/24 08:09:36;;;;;;;;;5.50;5.50;;;;;22.10;100.00;101671.88;5019441;28;45492;-71
2021/09/24 08:12:02;;;;;;;;;11.50;11.50;;;;;21.85;100.00;101672.13;5018950;28;45520;-72
2021/09/24 08:14:27;;;;;;;;;16.50;13.50;;;;;21.69;100.00;101673.75;5019336;28;45375;-72
2021/09/24 08:16:53;;;;;;;;;10.75;8.25;;;;;21.77;100.00;101678.75;5019523;28;45167;-72
2021/09/24 08:19:18;;;;;;;;;10.00;9.50;;;;;22.04;100.00;101677.50;5019341;28;45599;-72
2021/09/24 08:21:44;;;;;;;;;12.50;10.00;;;;;22.53;100.00;101680.44;5019392;28;45523;-72
2021/09/24 08:24:09;;;;;;;;;10.00;10.00;;;;;23.08;100.00;101678.56;5018656;28;45238;-73
2021/09/24 08:26:34;;;;;;;;;11.25;9.75;;;;;23.78;100.00;101680.22;5019280;28;45304;-72
2021/09/24 08:32:21;;;;;;;;;10.00;8.75;;;;;25.69;100.00;101677.09;5017807;28;45728;-71
2021/09/24 08:34:47;;;;;;;;;8.50;7.00;;;;;26.19;100.00;101665.81;5018663;28;45522;-71
2021/09/24 08:37:12;;;;;;;;;6.50;6.50;;;;;26.34;100.00;101672.03;5019086;28;45263;-70
2021/09/24 08:39:38;;;;;;;;;7.00;6.25;;;;;26.09;100.00;101663.84;5019194;28;45390;-71
2021/09/24 08:42:03;;;;;;;;;7.00;7.00;;;;;25.82;100.00;101674.53;5018752;28;46552;-70
2021/09/24 08:47:51;;;;;;;;;10.75;8.75;;;;;25.17;100.00;101690.09;5018743;28;45333;-71
2021/09/24 08:50:17;;;;;;;;;9.00;8.50;;;;;24.89;100.00;101678.34;5019093;28;45396;-72
2021/09/24 08:52:43;;;;;;;;;11.25;7.00;;;;;24.66;100.00;101678.81;5000730;28;47224;-72
2021/09/24 08:55:10;;;;;;;;;10.50;10.00;;;;;24.44;100.00;101679.22;5018562;28;45471;-71
2021/09/24 08:57:36;;;;;;;;;9.25;8.00;;;;;24.26;100.00;101678.44;5018979;28;45282;-72
2021/09/24 09:00:04;;;;;;;;;11.50;9.25;;;;;24.30;100.00;101693.34;5018832;28;45255;-73
2021/09/24 09:02:58;;;;;;;;;8.00;8.00;;;;;24.39;100.00;101683.94;5018741;28;47018;-71
2021/09/24 09:05:26;;;;;;;;;9.00;9.00;;;;;25.08;100.00;101687.97;5018566;28;45589;-72
2021/09/24 09:08:06;;;;;;;;;9.25;7.75;;;;;25.42;100.00;101693.00;5018858;28;45561;-71
2021/09/24 09:10:40;;;;;;;;;8.00;7.00;;;;;25.45;100.00;101691.97;5018232;28;45292;-71
2021/09/24 09:13:10;;;;;;;;;6.00;5.25;;;;;25.29;100.00;101686.69;5018435;28;45270;-71
2021/09/24 09:15:37;;;;;;;;;6.75;5.75;;;;;25.24;100.00;101691.44;5018210;28;45295;-71
2021/09/24 09:18:02;;;;;;;;;9.75;8.75;;;;;25.13;100.00;101678.75;5018456;28;45317;-69
2021/09/24 09:20:30;;;;;;;;;10.00;6.50;;;;;25.20;100.00;101696.13;5018419;28;45676;-70
2021/09/24 09:22:58;;;;;;;;;8.00;7.00;;;;;25.18;100.00;101702.53;5017982;28;47150;-70
2021/09/24 09:25:28;;;;;;;;;9.00;7.00;;;;;25.13;100.00;101697.47;5000109;28;45560;-71
2021/09/24 09:27:56;;;;;;;;;9.00;8.00;;;;;25.06;100.00;101690.72;5000633;28;45355;-70
2021/09/24 09:30:23;;;;;;;;;11.50;10.50;;;;;25.31;100.00;101693.66;5018462;28;45314;-71
2021/09/24 09:33:01;;;;;;;;;7.50;6.75;;;;;26.00;100.00;101696.56;5000249;28;47625;-71
2021/09/24 09:35:27;;;;;;;;;7.75;7.75;;;;;26.35;100.00;101687.16;5018145;28;45598;-72
2021/09/24 09:37:53;;;;;;;;;12.75;9.00;;;;;26.37;100.00;101677.19;5018452;28;45278;-72
2021/09/24 09:40:21;;;;;;;;;7.50;7.25;;;;;26.42;100.00;101677.75;5017904;28;45334;-71
2021/09/24 09:42:49;;;;;;;;;9.00;7.75;;;;;26.36;100.00;101693.38;5017864;28;46451;-72
2021/09/24 09:45:18;;;;;;;;;9.00;8.00;;;;;26.10;100.00;101687.84;5017751;28;45604;-71
2021/09/24 09:47:47;;;;;;;;;8.75;8.00;;;;;25.80;100.00;101690.66;5017934;28;45349;-71
2021/09/24 09:50:12;;;;;;;;;10.50;9.00;;;;;25.62;100.00;101692.63;5017786;28;45290;-71
2021/09/24 09:52:52;;;;;;;;;8.50;8.00;;;;;25.57;100.00;101683.16;5017912;28;46143;-71
2021/09/24 09:55:20;;;;;;;;;9.00;8.00;;;;;25.60;100.00;101675.84;5017794;28;45289;-71
2021/09/24 09:57:50;;;;;;;;;9.75;9.00;;;;;25.64;100.00;101685.38;5018108;28;45202;-72
2021/09/24 10:00:15;;;;;;;;;7.50;7.25;;;;;25.64;100.00;101680.03;5017678;28;45438;-72
2021/09/24 10:02:41;;;;;;;;;10.25;8.00;;;;;25.71;100.00;101667.16;5017416;28;46511;-71
2021/09/24 10:05:06;;;;;;;;;7.50;7.25;;;;;26.85;100.00;101670.38;5017747;28;45345;-72
2021/09/24 10:07:37;;;;;;;;;8.75;8.00;;;;;27.44;100.00;101673.47;5017982;28;45362;-71
2021/09/24 10:10:16;;;;;;;;;11.00;8.75;;;;;27.41;100.00;101672.84;5017362;28;45409;-72
2021/09/24 10:12:43;;;;;;;;;7.25;7.25;;;;;27.23;100.00;101668.75;5017246;28;46687;-72
2021/09/24 10:15:11;;;;;;;;;9.00;8.00;;;;;27.27;100.00;101670.25;5017653;28;45600;-72
2021/09/24 10:17:38;;;;;;;;;9.00;7.50;;;;;27.54;100.00;101675.50;5017554;28;45238;-72
2021/09/24 10:20:05;;;;;;;;;13.00;9.00;;;;;27.76;100.00;101668.53;5017748;28;45434;-70
2021/09/24 10:22:31;;;;;;;;;9.00;8.50;;;;;27.44;100.00;101672.63;4999427;28;48579;-71
2021/09/24 10:24:57;;;;;;;;;9.00;7.50;;;;;27.05;100.00;101674.41;5017211;28;45879;-72
2021/09/24 10:27:41;;;;;;;;;9.50;8.50;;;;;27.46;100.00;101679.59;5017383;28;45331;-71
2021/09/24 10:33:50;;;;;;;;;11.25;7.75;;;;;32.95;100.00;101665.97;5016988;28;45792;-72
2021/09/24 10:36:45;;;;;;;;;8.75;8.00;;;;;35.10;93.92;101654.66;5017363;28;45361;-72
2021/09/24 10:39:29;;;;;;;;;11.00;10.00;;;;;35.39;84.18;101659.78;5016923;28;45485;-72
2021/09/24 10:42:29;;;;;;;;;10.00;8.50;;;;;34.58;83.73;101659.97;5017335;28;45328;-71
2021/09/24 10:45:11;;;;;;;;;8.75;8.75;;;;;33.77;84.24;101666.16;5016640;28;46478;-72
2021/09/24 10:48:13;;;;;;;;;10.25;10.00;;;;;33.42;84.83;101671.44;5016902;28;45392;-71
2021/09/24 10:50:39;;;;;;;;;8.00;7.25;;;;;35.37;84.32;101662.66;5016766;28;45410;-71
2021/09/24 10:53:13;;;;;;;;;7.50;7.50;;;;;37.47;79.18;101656.88;5017171;28;45340;-71
2021/09/24 10:55:42;;;;;;;;;7.25;7.00;;;;;38.87;72.89;101654.00;5019405;28;47290;-71
2021/09/24 11:01:32;;;;;;;;;6.25;6.00;;;;;36.27;71.77;101650.28;5023596;28;45511;-71
2021/09/24 11:04:10;;;;;;;;;7.00;6.00;;;;;34.87;71.17;101647.03;5023572;28;45298;-72
2021/09/24 11:06:42;;;;;;;;;6.50;5.75;;;;;34.65;74.51;101642.91;5022877;28;47235;-72
2021/09/24 11:09:13;;;;;;;;;10.00;8.00;;;;;34.41;73.89;101642.72;5022703;28;45597;-72
2021/09/24 11:11:40;;;;;;;;;7.25;7.00;;;;;34.83;75.09;101632.00;5023449;28;45480;-71
2021/09/24 11:17:40;;;;;;;;;7.00;7.00;;;;;36.74;66.55;101623.28;5023245;28;45294;-71
2021/09/24 11:20:35;;;;;;;;;7.00;5.75;;;;;37.61;67.36;101627.03;5023067;28;45655;-71
2021/09/24 11:23:33;;;;;;;;;7.00;6.00;;;;;37.48;65.96;101624.00;5023709;28;45414;-71
2021/09/24 11:26:17;;;;;;;;;7.50;5.25;;;;;36.30;67.18;101622.72;5023516;28;45446;-71
2021/09/24 11:28:45;;;;;;;;;8.00;6.00;;;;;35.88;67.79;101626.38;5023043;28;45782;-72
2021/09/24 11:31:11;;;;;;;;;6.00;4.50;;;;;35.62;67.49;101620.16;5023362;28;45256;-72
2021/09/24 11:33:43;;;;;;;;;6.75;6.00;;;;;35.59;68.45;101618.63;5023314;28;45382;-72
2021/09/24 11:36:09;;;;;;;;;5.50;4.00;;;;;36.22;68.31;101624.59;5023096;28;45436;-71
2021/09/24 11:38:35;;;;;;;;;6.50;5.75;;;;;36.83;67.19;101612.41;5023225;28;45315;-71
2021/09/24 11:41:02;;;;;;;;;7.25;7.00;;;;;37.47;66.87;101621.47;5022930;28;45270;-71
2021/09/24 11:43:34;;;;;;;;;6.50;5.25;;;;;38.01;65.64;101620.50;5023136;28;45229;-71
2021/09/24 11:46:10;;;;;;;;;7.50;7.00;;;;;38.22;64.07;101608.13;5023122;28;45373;-71
2021/09/24 11:48:37;;;;;;;;;8.00;7.00;;;;;38.43;63.38;101605.56;5023018;28;45638;-71
2021/09/24 11:51:17;;;;;;;;;8.00;7.25;;;;;38.44;61.04;101595.50;5022727;28;45448;-71
2021/09/24 11:53:54;;;;;;;;;5.50;5.50;;;;;38.59;60.44;101599.97;5022906;28;45376;-71
2021/09/24 11:56:40;;;;;;;;;6.50;5.75;;;;;39.04;61.87;101595.47;5023093;28;45495;-71
2021/09/24 11:59:09;;;;;;;;;7.50;6.75;;;;;39.43;60.67;101594.34;5022259;28;46399;-71
2021/09/24 12:01:36;;;;;;;;;9.00;7.00;;;;;39.74;58.95;101589.50;5022634;28;45502;-70
2021/09/24 12:04:03;;;;;;;;;7.25;7.00;;;;;40.23;58.59;101580.56;5022396;28;45362;-71
2021/09/24 12:06:36;;;;;;;;;6.50;6.25;;;;;40.88;58.03;101584.09;5022699;28;45244;-71
2021/09/24 12:09:10;;;;;;;;;6.00;6.00;;;;;41.62;55.53;101587.00;5019302;28;45364;-71
2021/09/24 12:11:42;;;;;;;;;5.00;5.00;;;;;42.31;54.37;101577.69;5019725;28;45386;-71
2021/09/24 12:14:08;;;;;;;;;9.25;8.25;;;;;42.49;52.72;101577.94;5019120;28;45290;-71
2021/09/24 12:16:40;;;;;;;;;7.50;6.75;;;;;42.76;52.06;101579.59;5019902;28;45484;-71
2021/09/24 12:19:11;;;;;;;;;7.75;7.75;;;;;43.58;48.68;101580.03;5019141;28;47209;-71
2021/09/24 12:21:40;;;;;;;;;8.75;5.50;;;;;44.33;47.59;101581.06;5019011;28;45437;-71
2021/09/24 12:24:15;;;;;;;;;6.75;5.50;;;;;45.23;45.53;101578.69;5019095;28;45220;-71
2021/09/24 12:26:43;;;;;;;;;5.25;5.00;;;;;45.75;43.22;101571.69;5019635;28;45219;-71
2021/09/24 12:29:14;;;;;;;;;9.50;8.50;;;;;46.20;41.21;101581.44;5018705;28;46365;-71
2021/09/24 12:31:46;;;;;;;;;7.25;5.75;;;;;46.27;38.72;101569.19;5018640;28;45367;-70
2021/09/24 12:34:17;;;;;;;;;8.25;7.50;;;;;46.31;38.66;101566.78;5019082;28;45298;-71